Terminal Aerodrome Forecast
Issued by NWS Tallahassee, FL

Home | Current Version | Previous Version | Text Only | Print | Product List | Glossary On
Versions: 1 2 3 4 5 6 7 8 9 10 11 12 13 14 15 16 17 18 19 20 21 22 23 24 25 26 27 28 29 30 31 32 33
000
FTUS42 KTAE 041700 CCA
TAFTLH
TAF COR
KTLH 041738Z 0418/0518 19014G22KT P6SM SCT029 BKN040
     FM050100 19003KT 5SM BR BKN005
     FM050500 VRB03KT 1/2SM FG OVC003
     FM051500 20007KT 4SM BR OVC007=

USA.gov is the U.S. government's official web portal to all federal, state and local government web resources and services.